createdAt,value
2022-09-12T00:01:37.561Z,95931.19
2022-09-12T00:04:04.368Z,95932.72
2022-09-12T00:06:33.890Z,95934.84
2022-09-12T00:09:06.911Z,95931.28
2022-09-12T00:11:39.478Z,95928.41
2022-09-12T00:14:07.617Z,95934.16
2022-09-12T00:16:35.904Z,95933.16
2022-09-12T00:19:04.192Z,95927.50
2022-09-12T00:21:33.350Z,95931.94
2022-09-12T00:24:00.183Z,95930.03
2022-09-12T00:26:27.135Z,95933.91
2022-09-12T00:28:53.958Z,95925.22
2022-09-12T00:31:24.141Z,95928.56
2022-09-12T00:33:51.871Z,95922.25
2022-09-12T00:36:21.353Z,95922.63
2022-09-12T00:38:49.640Z,95918.19
2022-09-12T00:41:21.179Z,95916.81
2022-09-12T00:43:50.291Z,95909.47
2022-09-12T00:46:29.101Z,95910.56
2022-09-12T00:49:01.534Z,95911.22
2022-09-12T00:51:31.008Z,95913.94
2022-09-12T00:53:59.377Z,95903.63
2022-09-12T00:56:27.367Z,95907.31
2022-09-12T00:59:15.242Z,95903.81
2022-09-12T01:01:44.698Z,95909.25
2022-09-12T01:04:12.849Z,95905.38
2022-09-12T01:06:42.264Z,95900.59
2022-09-12T01:09:12.086Z,95898.97
2022-09-12T01:11:40.341Z,95895.03
2022-09-12T01:14:08.953Z,95892.09
2022-09-12T01:16:37.140Z,95891.50
2022-09-12T01:19:31.945Z,95894.28
2022-09-12T01:22:30.856Z,95888.41
2022-09-12T01:25:09.598Z,95885.78
2022-09-12T01:27:47.220Z,95880.84
2022-09-12T01:30:25.905Z,95887.19
2022-09-12T01:32:52.390Z,95881.75
2022-09-12T01:35:40.070Z,95883.69
2022-09-12T01:38:31.412Z,95874.66
2022-09-12T01:41:01.538Z,95878.53
2022-09-12T01:43:38.284Z,95881.75
2022-09-12T01:46:24.435Z,95874.97
2022-09-12T01:49:12.862Z,95875.06
2022-09-12T01:51:46.553Z,95865.88
2022-09-12T01:54:26.028Z,95866.16
2022-09-12T01:56:57.740Z,95862.63
2022-09-12T01:59:38.686Z,95862.47
2022-09-12T02:02:13.592Z,95862.50
2022-09-12T02:04:53.163Z,95857.38
2022-09-12T02:07:49.547Z,95856.00
2022-09-12T02:10:28.052Z,95853.09
2022-09-12T02:13:03.704Z,95855.34
2022-09-12T02:15:37.112Z,95849.25
2022-09-12T02:18:06.070Z,95845.84
2022-09-12T02:20:47.859Z,95843.38
2022-09-12T02:23:22.386Z,95847.06
2022-09-12T02:25:54.557Z,95848.75
2022-09-12T02:28:35.371Z,95840.09
2022-09-12T02:31:17.360Z,95838.31
2022-09-12T02:33:57.834Z,95838.22
2022-09-12T02:36:50.037Z,95834.41
2022-09-12T02:39:20.862Z,95832.09
2022-09-12T02:41:51.228Z,95830.13
2022-09-12T02:44:18.236Z,95832.72
2022-09-12T02:46:50.712Z,95834.16
2022-09-12T02:49:17.398Z,95835.72
2022-09-12T02:51:45.579Z,95830.22
2022-09-12T02:54:13.662Z,95832.97
2022-09-12T02:56:43.428Z,95821.56
2022-09-12T02:59:13.909Z,95827.50
2022-09-12T03:01:51.522Z,95826.25
2022-09-12T03:04:47.385Z,95827.19
2022-09-12T03:07:44.607Z,95829.03
2022-09-12T03:10:32.712Z,95831.72
2022-09-12T03:13:17.387Z,95828.41
2022-09-12T03:16:17.510Z,95834.56
2022-09-12T03:19:19.258Z,95829.09
2022-09-12T03:22:04.435Z,95824.50
2022-09-12T03:24:38.113Z,95829.50
2022-09-12T03:27:29.359Z,95830.25
2022-09-12T03:29:56.365Z,95831.94
2022-09-12T03:32:47.589Z,95829.78
2022-09-12T03:35:17.944Z,95831.16
2022-09-12T03:37:48.051Z,95825.31
2022-09-12T03:40:15.597Z,95826.78
2022-09-12T03:42:42.682Z,95827.94
2022-09-12T03:45:10.616Z,95828.63
2022-09-12T03:47:37.422Z,95820.09
2022-09-12T03:50:04.640Z,95823.97
2022-09-12T03:52:31.194Z,95826.22
2022-09-12T03:54:57.724Z,95831.25
2022-09-12T03:57:24.257Z,95825.66
2022-09-12T03:59:50.812Z,95825.19
2022-09-12T04:02:17.747Z,95822.28
2022-09-12T04:04:45.061Z,95821.88
2022-09-12T04:07:11.602Z,95817.19
2022-09-12T04:09:38.230Z,95821.00
2022-09-12T04:12:05.242Z,95829.84
2022-09-12T04:14:31.758Z,95827.97
2022-09-12T04:16:58.343Z,95831.75
2022-09-12T04:19:26.118Z,95842.03
2022-09-12T04:21:52.991Z,95839.19
2022-09-12T04:24:19.587Z,95827.25
2022-09-12T04:26:46.119Z,95831.38
2022-09-12T04:29:12.983Z,95833.16
2022-09-12T04:31:39.548Z,95831.81
2022-09-12T04:34:06.781Z,95836.91
2022-09-12T04:36:34.242Z,95832.59
2022-09-12T04:39:01.946Z,95825.31
2022-09-12T04:41:31.305Z,95824.63
2022-09-12T04:44:03.097Z,95831.16
2022-09-12T04:46:32.279Z,95834.38
2022-09-12T04:48:59.090Z,95827.47
2022-09-12T04:51:31.550Z,95829.22
2022-09-12T04:54:00.939Z,95823.09
2022-09-12T04:56:28.777Z,95823.13
2022-09-12T04:58:59.525Z,95820.50
2022-09-12T05:01:28.016Z,95820.31
2022-09-12T05:03:55.190Z,95825.06
2022-09-12T05:06:25.111Z,95823.44
2022-09-12T05:08:52.919Z,95823.78
2022-09-12T05:11:24.944Z,95823.06
2022-09-12T05:13:52.992Z,95818.66
2022-09-12T05:16:21.037Z,95823.78
2022-09-12T05:18:48.976Z,95825.16
2022-09-12T05:21:17.617Z,95821.06
2022-09-12T05:23:44.592Z,95823.97
2022-09-12T05:26:14.426Z,95830.13
2022-09-12T05:28:41.929Z,95829.50
2022-09-12T05:31:14.878Z,95825.56
2022-09-12T05:33:43.425Z,95828.88
2022-09-12T05:36:13.213Z,95833.47
2022-09-12T05:38:42.141Z,95836.00
2022-09-12T05:41:16.958Z,95836.00
2022-09-12T05:43:45.531Z,95839.06
2022-09-12T05:46:16.965Z,95845.22
2022-09-12T05:48:44.853Z,95838.03
2022-09-12T05:51:20.302Z,95841.56
2022-09-12T05:53:49.982Z,95837.72
2022-09-12T05:56:18.889Z,95839.19
2022-09-12T05:58:47.970Z,95837.16
2022-09-12T06:01:19.233Z,95835.53
2022-09-12T06:03:49.015Z,95837.34
2022-09-12T06:06:18.846Z,95839.13
2022-09-12T06:08:47.647Z,95842.06
2022-09-12T06:11:16.935Z,95832.69
2022-09-12T06:13:44.342Z,95831.56
2022-09-12T06:16:14.616Z,95838.28
2022-09-12T06:18:42.103Z,95838.50
2022-09-12T06:21:11.616Z,95833.03
2022-09-12T06:23:39.987Z,95842.59
2022-09-12T06:26:08.066Z,95837.13
2022-09-12T06:28:36.724Z,95833.81
2022-09-12T06:31:12.462Z,95832.69
2022-09-12T06:33:44.605Z,95835.69
2022-09-12T06:36:14.330Z,95838.47
2022-09-12T06:38:41.036Z,95840.09
2022-09-12T06:41:12.404Z,95830.69
2022-09-12T06:43:40.394Z,95828.75
2022-09-12T06:46:07.878Z,95829.44
2022-09-12T06:48:38.321Z,95825.59
2022-09-12T06:51:11.356Z,95830.56
2022-09-12T06:53:38.185Z,95825.69
2022-09-12T06:56:34.146Z,95827.06
2022-09-12T06:59:00.678Z,95822.28
2022-09-12T07:01:29.388Z,95834.19
2022-09-12T07:03:59.219Z,95839.47
2022-09-12T07:06:32.214Z,95840.59
2022-09-12T07:09:00.891Z,95841.81
2022-09-12T07:11:31.814Z,95835.66
2022-09-12T07:13:59.957Z,95841.31
2022-09-12T07:16:26.630Z,95842.25
2022-09-12T07:18:55.661Z,95846.53
2022-09-12T07:21:22.920Z,95838.25
2022-09-12T07:23:51.711Z,95841.28
2022-09-12T07:26:18.796Z,95830.72
2022-09-12T07:28:45.580Z,95837.59
2022-09-12T07:31:17.615Z,95834.13
2022-09-12T07:33:44.406Z,95841.66
2022-09-12T07:36:16.210Z,95838.81
2022-09-12T07:38:43.957Z,95823.34
2022-09-12T07:41:15.318Z,95823.06
2022-09-12T07:43:44.769Z,95820.06
2022-09-12T07:46:11.704Z,95815.47
2022-09-12T07:48:39.149Z,95820.88
2022-09-12T07:51:08.002Z,95825.88
2022-09-12T07:53:40.107Z,95822.75
2022-09-12T07:56:08.220Z,95813.22
2022-09-12T07:58:36.555Z,95812.94
2022-09-12T08:01:07.242Z,95803.31
2022-09-12T08:03:34.110Z,95804.75
2022-09-12T08:06:11.804Z,95811.56
2022-09-12T08:08:39.020Z,95809.63
2022-09-12T08:11:08.982Z,95813.41
2022-09-12T08:13:37.072Z,95810.38
2022-09-12T08:16:07.737Z,95813.00
2022-09-12T08:18:36.405Z,95821.34
2022-09-12T08:21:08.548Z,95827.53
2022-09-12T08:23:35.158Z,95822.13
2022-09-12T08:26:06.135Z,95811.78
2022-09-12T08:28:34.010Z,95814.47
2022-09-12T08:31:05.555Z,95811.41
2022-09-12T08:33:33.703Z,95809.38
2022-09-12T08:36:10.442Z,95814.47
2022-09-12T08:38:39.138Z,95814.22
2022-09-12T08:41:42.828Z,95815.50
2022-09-12T08:44:39.872Z,95805.03
2022-09-12T08:47:36.986Z,95817.66
2022-09-12T08:50:09.780Z,95812.41
2022-09-12T08:52:45.144Z,95816.38
2022-09-12T08:55:56.234Z,95812.13
2022-09-12T08:58:24.849Z,95810.66
2022-09-12T09:01:16.460Z,95806.91
2022-09-12T09:03:44.266Z,95810.19
2022-09-12T09:06:36.147Z,95800.91
2022-09-12T09:09:14.777Z,95806.72
2022-09-12T09:12:06.527Z,95801.56
2022-09-12T09:14:58.959Z,95804.91
2022-09-12T09:17:40.549Z,95806.56
2022-09-12T09:20:37.087Z,95801.84
2022-09-12T09:23:28.579Z,95801.50
2022-09-12T09:26:14.595Z,95805.56
2022-09-12T09:28:52.531Z,95814.16
2022-09-12T09:31:22.033Z,95817.03
2022-09-12T09:33:56.624Z,95807.97
2022-09-12T09:36:29.623Z,95813.53
2022-09-12T09:39:05.891Z,95806.59
2022-09-12T09:41:39.752Z,95799.28
2022-09-12T09:46:38.324Z,95800.97
2022-09-12T09:49:07.017Z,95793.59
2022-09-12T09:51:37.599Z,95804.88
2022-09-12T09:54:18.184Z,95794.88
2022-09-12T09:56:44.793Z,95786.94
2022-09-12T09:59:19.706Z,95793.31
2022-09-12T10:01:54.948Z,95797.00
2022-09-12T10:04:31.227Z,95789.09
2022-09-12T10:07:00.843Z,95796.56
2022-09-12T10:09:35.082Z,95800.56
2022-09-12T10:12:20.969Z,95793.50
2022-09-12T10:15:02.237Z,95795.91
2022-09-12T10:17:39.249Z,95789.84
2022-09-12T10:20:33.771Z,95782.44
2022-09-12T10:23:03.638Z,95785.91
2022-09-12T10:25:30.214Z,95784.47
2022-09-12T10:28:00.322Z,95785.78
2022-09-12T10:30:30.697Z,95779.31
2022-09-12T10:33:06.401Z,95775.47
2022-09-12T10:35:45.659Z,95777.66
2022-09-12T10:38:32.708Z,95779.28
2022-09-12T10:41:03.548Z,95781.91
2022-09-12T10:43:35.999Z,95780.44
2022-09-12T10:46:14.840Z,95770.94
2022-09-12T10:48:42.326Z,95768.41
2022-09-12T10:51:29.236Z,95774.19
2022-09-12T10:53:59.986Z,95769.50
2022-09-12T10:56:33.472Z,95767.47
2022-09-12T10:59:05.637Z,95763.13
2022-09-12T11:01:32.163Z,95772.19
2022-09-12T11:04:35.812Z,95770.03
2022-09-12T11:07:21.359Z,95764.72
2022-09-12T11:10:13.797Z,95758.06
2022-09-12T11:13:05.844Z,95754.00
2022-09-12T11:15:45.750Z,95757.13
2022-09-12T11:18:30.557Z,95757.09
2022-09-12T11:21:13.946Z,95748.56
2022-09-12T11:24:00.768Z,95751.66
2022-09-12T11:27:01.131Z,95750.00
2022-09-12T11:29:48.312Z,95748.56
2022-09-12T11:32:43.269Z,95744.59
2022-09-12T11:35:17.692Z,95746.91
2022-09-12T11:37:51.134Z,95740.72
2022-09-12T11:40:23.770Z,95741.94
2022-09-12T11:42:54.574Z,95742.50
2022-09-12T11:45:29.986Z,95737.09
2022-09-12T11:48:03.952Z,95740.34
2022-09-12T11:50:32.029Z,95736.38
2022-09-12T11:53:11.232Z,95732.38
2022-09-12T11:55:53.239Z,95732.63
2022-09-12T11:58:24.820Z,95734.25
2022-09-12T12:00:56.269Z,95735.53
2022-09-12T12:03:30.722Z,95731.41
2022-09-12T12:06:10.755Z,95725.88
2022-09-12T12:08:41.089Z,95724.44
2022-09-12T12:11:09.276Z,95717.72
2022-09-12T12:13:56.536Z,95711.66
2022-09-12T12:16:25.958Z,95718.06
2022-09-12T12:19:01.981Z,95713.66
2022-09-12T12:21:29.221Z,95717.06
2022-09-12T12:24:07.563Z,95712.44
2022-09-12T12:26:40.176Z,95705.78
2022-09-12T12:29:13.441Z,95702.59
2022-09-12T12:32:19.843Z,95707.28
2022-09-12T12:34:47.617Z,95701.44
2022-09-12T12:37:20.278Z,95692.81
2022-09-12T12:39:47.849Z,95692.63
2022-09-12T12:42:32.582Z,95685.00
2022-09-12T12:45:06.504Z,95685.81
2022-09-12T12:47:36.015Z,95686.28
2022-09-12T12:50:07.910Z,95685.59
2022-09-12T12:52:50.506Z,95678.38
2022-09-12T12:55:38.594Z,95676.00
2022-09-12T12:58:38.755Z,95679.59
2022-09-12T13:01:16.762Z,95679.69
2022-09-12T13:03:54.108Z,95671.72
2022-09-12T13:06:36.866Z,95665.72
2022-09-12T13:09:07.863Z,95675.53
2022-09-12T13:11:38.571Z,95675.91
2022-09-12T13:14:40.030Z,95656.78
2022-09-12T13:17:07.839Z,95673.31
2022-09-12T13:19:37.312Z,95672.25
2022-09-12T13:22:09.778Z,95669.16
2022-09-12T13:24:52.467Z,95670.16
2022-09-12T13:27:22.105Z,95664.22
2022-09-12T13:29:49.495Z,95667.84
2022-09-12T13:32:18.045Z,95657.47
2022-09-12T13:35:04.364Z,95655.53
2022-09-12T13:37:48.643Z,95658.34
2022-09-12T13:40:32.453Z,95650.38
2022-09-12T13:43:23.212Z,95643.97
2022-09-12T13:45:50.700Z,95649.06
2022-09-12T13:48:21.962Z,95638.59
2022-09-12T13:50:56.976Z,95636.38
2022-09-12T13:53:26.599Z,95636.75
2022-09-12T13:55:57.858Z,95635.72
2022-09-12T13:58:29.962Z,95634.31
2022-09-12T14:01:15.743Z,95633.09
2022-09-12T14:04:12.667Z,95619.91
2022-09-12T14:06:50.818Z,95626.63
2022-09-12T14:09:26.903Z,95619.06
2022-09-12T14:11:53.809Z,95619.97
2022-09-12T14:14:37.807Z,95619.13
2022-09-12T14:17:33.611Z,95609.13
2022-09-12T14:20:03.804Z,95614.19
2022-09-12T14:22:31.076Z,95620.03
2022-09-12T14:24:59.502Z,95614.84
2022-09-12T14:27:30.114Z,95615.97
2022-09-12T14:30:02.801Z,95607.84
2022-09-12T14:32:29.474Z,95599.38
2022-09-12T14:35:12.217Z,95600.63
2022-09-12T14:37:39.674Z,95601.25
2022-09-12T14:40:26.613Z,95603.13
2022-09-12T14:42:55.160Z,95594.28
2022-09-12T14:45:28.588Z,95594.00
2022-09-12T14:47:55.728Z,95590.38
2022-09-12T14:50:27.676Z,95588.00
2022-09-12T14:53:27.902Z,95582.81
2022-09-12T14:56:03.576Z,95580.94
2022-09-12T14:58:30.478Z,95583.59
2022-09-12T15:00:57.708Z,95572.16
2022-09-12T15:03:27.762Z,95576.38
2022-09-12T15:05:55.112Z,95577.34
2022-09-12T15:08:21.687Z,95571.66
2022-09-12T15:10:48.692Z,95576.66
2022-09-12T15:13:21.033Z,95578.59
2022-09-12T15:15:50.397Z,95576.38
2022-09-12T15:18:18.254Z,95568.66
2022-09-12T15:20:47.285Z,95564.72
2022-09-12T15:23:23.392Z,95574.44
2022-09-12T15:25:50.148Z,95577.63
2022-09-12T15:28:24.030Z,95575.81
2022-09-12T15:30:53.081Z,95575.59
2022-09-12T15:33:22.932Z,95572.47
2022-09-12T15:35:52.401Z,95580.69
2022-09-12T15:38:23.036Z,95576.53
2022-09-12T15:40:53.725Z,95572.91
2022-09-12T15:43:22.490Z,95569.75
2022-09-12T15:45:51.518Z,95566.44
2022-09-12T15:48:21.468Z,95568.81
2022-09-12T15:50:48.449Z,95560.47
2022-09-12T15:53:16.568Z,95567.22
2022-09-12T15:55:43.942Z,95569.34
2022-09-12T15:58:10.714Z,95561.09
2022-09-12T16:00:37.357Z,95551.75
2022-09-12T16:03:04.263Z,95553.16
2022-09-12T16:05:30.940Z,95558.38
2022-09-12T16:07:57.522Z,95564.41
2022-09-12T16:10:27.775Z,95554.03
2022-09-12T16:12:54.541Z,95551.69
2022-09-12T16:15:23.991Z,95548.13
2022-09-12T16:17:50.731Z,95540.50
2022-09-12T16:20:18.832Z,95534.03
2022-09-12T16:22:45.482Z,95538.78
2022-09-12T16:25:13.466Z,95543.69
2022-09-12T16:27:41.578Z,95541.56
2022-09-12T16:30:11.415Z,95536.00
2022-09-12T16:32:38.261Z,95540.94
2022-09-12T16:35:10.343Z,95537.47
2022-09-12T16:37:38.204Z,95540.03
2022-09-12T16:40:07.559Z,95531.44
2022-09-12T16:42:37.431Z,95527.38
2022-09-12T16:45:06.727Z,95535.56
2022-09-12T16:47:34.002Z,95526.97
2022-09-12T16:50:04.434Z,95520.66
2022-09-12T16:52:31.467Z,95514.84
2022-09-12T16:54:58.175Z,95507.84
2022-09-12T16:57:24.740Z,95514.34
2022-09-12T16:59:52.373Z,95523.88
2022-09-12T17:02:20.951Z,95518.97
2022-09-12T17:04:50.202Z,95526.25
2022-09-12T17:07:16.931Z,95536.50
2022-09-12T17:09:47.789Z,95529.03
2022-09-12T17:12:14.754Z,95528.50
2022-09-12T17:14:41.273Z,95530.75
2022-09-12T17:17:07.961Z,95537.06
2022-09-12T17:19:34.463Z,95537.75
2022-09-12T17:22:03.377Z,95533.13
2022-09-12T17:24:29.974Z,95539.56
2022-09-12T17:26:57.184Z,95550.50
2022-09-12T17:29:23.809Z,95547.56
2022-09-12T17:31:50.478Z,95549.22
2022-09-12T17:34:17.730Z,95552.16
2022-09-12T17:36:45.634Z,95552.88
2022-09-12T17:39:13.590Z,95553.28
2022-09-12T17:41:42.715Z,95551.19
2022-09-12T17:44:11.754Z,95558.47
2022-09-12T17:46:39.260Z,95550.44
2022-09-12T17:49:08.624Z,95548.09
2022-09-12T17:51:35.449Z,95551.00
2022-09-12T17:54:06.541Z,95552.53
2022-09-12T17:56:35.113Z,95550.97
2022-09-12T17:59:02.047Z,95546.53
2022-09-12T18:01:48.247Z,95547.28
2022-09-12T18:04:14.885Z,95560.72
2022-09-12T18:06:47.711Z,95561.44
2022-09-12T18:09:17.618Z,95559.59
2022-09-12T18:11:44.397Z,95551.88
2022-09-12T18:14:14.166Z,95547.56
2022-09-12T18:16:42.096Z,95550.06
2022-09-12T18:19:09.498Z,95549.06
2022-09-12T18:21:36.113Z,95552.63
2022-09-12T18:24:03.090Z,95552.50
2022-09-12T18:26:30.758Z,95543.09
2022-09-12T18:28:58.156Z,95549.09
2022-09-12T18:31:27.520Z,95551.44
2022-09-12T18:33:54.695Z,95554.41
2022-09-12T18:36:22.091Z,95563.31
2022-09-12T18:38:49.807Z,95565.25
2022-09-12T18:41:19.591Z,95561.16
2022-09-12T18:43:47.098Z,95563.41
2022-09-12T18:46:17.515Z,95564.19
2022-09-12T18:48:45.031Z,95564.78
2022-09-12T18:51:22.301Z,95568.34
2022-09-12T18:53:54.826Z,95568.84
2022-09-12T18:56:32.144Z,95561.59
2022-09-12T18:58:59.826Z,95562.25
2022-09-12T19:01:31.511Z,95571.06
2022-09-12T19:03:59.147Z,95565.31
2022-09-12T19:06:28.562Z,95572.13
2022-09-12T19:08:56.364Z,95571.75
2022-09-12T19:11:24.445Z,95571.94
2022-09-12T19:13:52.272Z,95565.53
2022-09-12T19:16:21.769Z,95566.94
2022-09-12T19:18:49.680Z,95564.88
2022-09-12T19:21:19.776Z,95564.81
2022-09-12T19:23:46.373Z,95562.56
2022-09-12T19:26:14.914Z,95553.31
2022-09-12T19:28:42.407Z,95562.81
2022-09-12T19:31:12.158Z,95563.78
2022-09-12T19:33:39.296Z,95561.03
2022-09-12T19:36:27.555Z,95563.63
2022-09-12T19:39:00.975Z,95566.56
2022-09-12T19:41:27.619Z,95571.84
2022-09-12T19:43:56.094Z,95563.56
2022-09-12T19:46:24.371Z,95557.16
2022-09-12T19:48:52.472Z,95557.13
2022-09-12T19:51:21.354Z,95554.84
2022-09-12T19:53:50.146Z,95549.22
2022-09-12T19:56:17.071Z,95545.50
2022-09-12T19:58:46.276Z,95545.13
2022-09-12T20:01:17.309Z,95550.19
2022-09-12T20:03:44.193Z,95555.03
2022-09-12T20:06:15.698Z,95559.50
2022-09-12T20:08:43.847Z,95554.56
2022-09-12T20:11:13.058Z,95557.00
2022-09-12T20:13:39.885Z,95563.19
2022-09-12T20:16:07.587Z,95553.34
2022-09-12T20:18:34.559Z,95550.44
2022-09-12T20:21:09.226Z,95569.06
2022-09-12T20:23:35.822Z,95557.91
2022-09-12T20:26:02.586Z,95559.03
2022-09-12T20:28:29.200Z,95555.03
2022-09-12T20:31:00.981Z,95548.31
2022-09-12T20:33:27.624Z,95542.28
2022-09-12T20:36:00.914Z,95546.13
2022-09-12T20:38:27.575Z,95543.13
2022-09-12T20:40:54.132Z,95545.66
2022-09-12T20:43:21.467Z,95541.31
2022-09-12T20:45:48.040Z,95545.34
2022-09-12T20:48:14.572Z,95538.31
2022-09-12T20:50:41.092Z,95539.53
2022-09-12T20:53:07.601Z,95536.28
2022-09-12T20:55:34.125Z,95540.88
2022-09-12T20:58:00.757Z,95545.47
2022-09-12T21:00:27.315Z,95552.50
2022-09-12T21:02:53.895Z,95551.41
2022-09-12T21:05:20.446Z,95539.94
2022-09-12T21:07:47.079Z,95544.78
2022-09-12T21:10:13.757Z,95527.13
2022-09-12T21:12:40.290Z,95539.16
2022-09-12T21:15:07.349Z,95529.84
2022-09-12T21:17:33.983Z,95535.22
2022-09-12T21:20:00.597Z,95546.28
2022-09-12T21:22:27.160Z,95541.28
2022-09-12T21:24:53.693Z,95543.28
2022-09-12T21:27:20.534Z,95547.16
2022-09-12T21:29:47.084Z,95549.78
2022-09-12T21:32:14.345Z,95546.41
2022-09-12T21:34:41.792Z,95549.09
2022-09-12T21:37:08.339Z,95551.38
2022-09-12T21:39:36.017Z,95545.22
2022-09-12T21:42:02.605Z,95539.19
2022-09-12T21:44:29.205Z,95534.91
2022-09-12T21:46:55.776Z,95531.91
2022-09-12T21:49:22.287Z,95527.88
2022-09-12T21:51:48.894Z,95525.03
2022-09-12T21:54:15.442Z,95525.03
2022-09-12T21:56:42.032Z,95523.13
2022-09-12T21:59:08.658Z,95512.22
2022-09-12T22:01:35.638Z,95514.69
2022-09-12T22:04:02.470Z,95500.00
2022-09-12T22:06:28.989Z,95495.13
2022-09-12T22:08:56.249Z,95494.25
2022-09-12T22:11:23.632Z,95500.00
2022-09-12T22:13:50.254Z,95498.75
2022-09-12T22:16:17.725Z,95489.84
2022-09-12T22:18:46.838Z,95492.38
2022-09-12T22:21:15.948Z,95490.44
2022-09-12T22:24:01.280Z,95492.69
2022-09-12T22:26:28.925Z,95479.97
2022-09-12T22:28:56.162Z,95483.41
2022-09-12T22:31:23.070Z,95478.88
2022-09-12T22:33:51.446Z,95473.00
2022-09-12T22:36:18.178Z,95477.88
2022-09-12T22:38:44.763Z,95473.47
2022-09-12T22:41:12.296Z,95468.91
2022-09-12T22:43:39.306Z,95468.41
2022-09-12T22:46:07.838Z,95472.00
2022-09-12T22:48:34.683Z,95482.72
2022-09-12T22:51:01.176Z,95481.50
2022-09-12T22:53:28.440Z,95476.84
2022-09-12T22:55:55.044Z,95481.44
2022-09-12T22:58:21.622Z,95480.97
2022-09-12T23:00:51.512Z,95484.44
2022-09-12T23:03:19.125Z,95483.38
2022-09-12T23:05:47.201Z,95488.19
2022-09-12T23:08:14.770Z,95484.28
2022-09-12T23:10:41.328Z,95486.09
2022-09-12T23:13:07.870Z,95490.56
2022-09-12T23:15:34.406Z,95492.47
2022-09-12T23:18:00.953Z,95492.41
2022-09-12T23:20:27.577Z,95495.44
2022-09-12T23:22:54.743Z,95488.56
2022-09-12T23:25:26.261Z,95487.28
2022-09-12T23:27:53.441Z,95487.81
2022-09-12T23:30:21.424Z,95488.47
2022-09-12T23:32:49.106Z,95481.25
2022-09-12T23:35:18.366Z,95485.94
2022-09-12T23:37:45.436Z,95475.59
2022-09-12T23:40:12.049Z,95481.63
2022-09-12T23:42:38.594Z,95487.28
2022-09-12T23:45:05.419Z,95481.94
2022-09-12T23:47:31.955Z,95482.06
2022-09-12T23:49:58.518Z,95473.72
2022-09-12T23:52:25.067Z,95477.19
2022-09-12T23:54:51.578Z,95476.47
2022-09-12T23:57:18.127Z,95471.72
2022-09-12T23:59:44.742Z,95464.56
